sensor_id;sensor_type;location;lat;lon;timestamp;P1;durP1;ratioP1;P2;durP2;ratioP2
2011;SDS011;1009;51.436;6.972;2023-08-06T00:00:39;7.23;;;2.60;;
2011;SDS011;1009;51.436;6.972;2023-08-06T00:03:06;5.67;;;3.50;;
2011;SDS011;1009;51.436;6.972;2023-08-06T00:05:33;3.37;;;2.93;;
2011;SDS011;1009;51.436;6.972;2023-08-06T00:07:59;3.97;;;2.90;;
2011;SDS011;1009;51.436;6.972;2023-08-06T00:10:28;4.40;;;2.37;;
2011;SDS011;1009;51.436;6.972;2023-08-06T00:12:55;4.50;;;3.10;;
2011;SDS011;1009;51.436;6.972;2023-08-06T00:15:22;3.27;;;2.93;;
2011;SDS011;1009;51.436;6.972;2023-08-06T00:17:49;4.13;;;3.13;;
2011;SDS011;1009;51.436;6.972;2023-08-06T00:20:16;2.70;;;2.50;;
2011;SDS011;1009;51.436;6.972;2023-08-06T00:22:43;2.87;;;2.57;;
2011;SDS011;1009;51.436;6.972;2023-08-06T00:25:09;2.97;;;2.67;;
2011;SDS011;1009;51.436;6.972;2023-08-06T00:27:38;6.03;;;3.50;;
2011;SDS011;1009;51.436;6.972;2023-08-06T00:30:05;4.77;;;3.07;;
2011;SDS011;1009;51.436;6.972;2023-08-06T00:32:32;5.33;;;2.70;;
2011;SDS011;1009;51.436;6.972;2023-08-06T00:34:59;4.63;;;2.70;;
2011;SDS011;1009;51.436;6.972;2023-08-06T00:37:26;3.20;;;2.57;;
2011;SDS011;1009;51.436;6.972;2023-08-06T00:39:52;3.37;;;2.60;;
2011;SDS011;1009;51.436;6.972;2023-08-06T00:42:19;3.67;;;2.47;;
2011;SDS011;1009;51.436;6.972;2023-08-06T00:44:48;4.10;;;2.80;;
2011;SDS011;1009;51.436;6.972;2023-08-06T00:47:15;4.33;;;3.40;;
2011;SDS011;1009;51.436;6.972;2023-08-06T00:49:42;2.93;;;2.40;;
2011;SDS011;1009;51.436;6.972;2023-08-06T00:52:10;3.33;;;2.00;;
2011;SDS011;1009;51.436;6.972;2023-08-06T00:54:38;4.70;;;2.67;;
2011;SDS011;1009;51.436;6.972;2023-08-06T00:57:07;3.40;;;2.23;;
2011;SDS011;1009;51.436;6.972;2023-08-06T00:59:35;4.50;;;2.13;;
2011;SDS011;1009;51.436;6.972;2023-08-06T01:02:03;3.07;;;2.50;;
2011;SDS011;1009;51.436;6.972;2023-08-06T01:04:30;4.10;;;3.10;;
2011;SDS011;1009;51.436;6.972;2023-08-06T01:07:01;2.83;;;2.20;;
2011;SDS011;1009;51.436;6.972;2023-08-06T01:09:35;4.13;;;2.53;;
2011;SDS011;1009;51.436;6.972;2023-08-06T01:12:13;4.10;;;2.90;;
2011;SDS011;1009;51.436;6.972;2023-08-06T01:14:51;3.13;;;2.43;;
2011;SDS011;1009;51.436;6.972;2023-08-06T01:17:25;4.80;;;2.90;;
2011;SDS011;1009;51.436;6.972;2023-08-06T01:19:52;4.20;;;3.13;;
2011;SDS011;1009;51.436;6.972;2023-08-06T01:22:20;3.37;;;2.60;;
2011;SDS011;1009;51.436;6.972;2023-08-06T01:24:48;6.20;;;2.50;;
2011;SDS011;1009;51.436;6.972;2023-08-06T01:27:17;5.40;;;2.63;;
2011;SDS011;1009;51.436;6.972;2023-08-06T01:29:54;3.77;;;2.37;;
2011;SDS011;1009;51.436;6.972;2023-08-06T01:32:27;2.43;;;2.03;;
2011;SDS011;1009;51.436;6.972;2023-08-06T01:34:58;2.80;;;2.40;;
2011;SDS011;1009;51.436;6.972;2023-08-06T01:37:27;3.33;;;2.40;;
2011;SDS011;1009;51.436;6.972;2023-08-06T01:39:55;3.23;;;2.60;;
2011;SDS011;1009;51.436;6.972;2023-08-06T01:42:22;4.03;;;2.80;;
2011;SDS011;1009;51.436;6.972;2023-08-06T01:44:49;4.33;;;3.33;;
2011;SDS011;1009;51.436;6.972;2023-08-06T01:47:15;5.43;;;2.63;;
2011;SDS011;1009;51.436;6.972;2023-08-06T01:49:42;3.00;;;2.20;;
2011;SDS011;1009;51.436;6.972;2023-08-06T01:52:09;4.20;;;2.70;;
2011;SDS011;1009;51.436;6.972;2023-08-06T01:54:37;5.40;;;2.70;;
2011;SDS011;1009;51.436;6.972;2023-08-06T01:57:04;3.93;;;2.80;;
2011;SDS011;1009;51.436;6.972;2023-08-06T01:59:31;3.83;;;3.00;;
2011;SDS011;1009;51.436;6.972;2023-08-06T02:01:58;4.50;;;2.63;;
2011;SDS011;1009;51.436;6.972;2023-08-06T02:04:25;4.53;;;2.70;;
2011;SDS011;1009;51.436;6.972;2023-08-06T02:06:52;4.60;;;2.87;;
2011;SDS011;1009;51.436;6.972;2023-08-06T02:09:18;3.80;;;2.70;;
2011;SDS011;1009;51.436;6.972;2023-08-06T02:11:47;3.00;;;2.70;;
2011;SDS011;1009;51.436;6.972;2023-08-06T02:14:13;4.50;;;2.80;;
2011;SDS011;1009;51.436;6.972;2023-08-06T02:16:40;3.40;;;2.70;;
2011;SDS011;1009;51.436;6.972;2023-08-06T02:19:07;3.07;;;2.30;;
2011;SDS011;1009;51.436;6.972;2023-08-06T02:21:33;4.77;;;3.33;;
2011;SDS011;1009;51.436;6.972;2023-08-06T02:24:00;9.93;;;3.80;;
2011;SDS011;1009;51.436;6.972;2023-08-06T02:26:27;3.70;;;2.70;;
2011;SDS011;1009;51.436;6.972;2023-08-06T02:28:55;3.50;;;2.97;;
2011;SDS011;1009;51.436;6.972;2023-08-06T02:31:22;5.33;;;2.10;;
2011;SDS011;1009;51.436;6.972;2023-08-06T02:33:49;3.90;;;2.23;;
2011;SDS011;1009;51.436;6.972;2023-08-06T02:36:15;3.27;;;2.20;;
2011;SDS011;1009;51.436;6.972;2023-08-06T02:38:42;3.80;;;2.17;;
2011;SDS011;1009;51.436;6.972;2023-08-06T02:41:09;3.80;;;2.30;;
2011;SDS011;1009;51.436;6.972;2023-08-06T02:43:36;3.60;;;2.73;;
2011;SDS011;1009;51.436;6.972;2023-08-06T02:46:04;3.10;;;2.43;;
2011;SDS011;1009;51.436;6.972;2023-08-06T02:48:31;5.30;;;3.07;;
2011;SDS011;1009;51.436;6.972;2023-08-06T02:50:58;2.50;;;2.30;;
2011;SDS011;1009;51.436;6.972;2023-08-06T02:53:26;3.37;;;2.60;;
2011;SDS011;1009;51.436;6.972;2023-08-06T02:55:52;4.20;;;3.10;;
2011;SDS011;1009;51.436;6.972;2023-08-06T02:58:20;4.20;;;3.10;;
2011;SDS011;1009;51.436;6.972;2023-08-06T03:00:58;3.30;;;2.30;;
2011;SDS011;1009;51.436;6.972;2023-08-06T03:03:27;3.97;;;2.33;;
2011;SDS011;1009;51.436;6.972;2023-08-06T03:05:54;3.60;;;2.60;;
2011;SDS011;1009;51.436;6.972;2023-08-06T03:08:21;3.80;;;2.53;;
2011;SDS011;1009;51.436;6.972;2023-08-06T03:10:48;2.73;;;2.40;;
2011;SDS011;1009;51.436;6.972;2023-08-06T03:13:15;4.40;;;3.20;;
2011;SDS011;1009;51.436;6.972;2023-08-06T03:15:42;2.93;;;1.90;;
2011;SDS011;1009;51.436;6.972;2023-08-06T03:18:09;3.00;;;2.57;;
2011;SDS011;1009;51.436;6.972;2023-08-06T03:20:37;5.30;;;2.60;;
2011;SDS011;1009;51.436;6.972;2023-08-06T03:23:03;7.83;;;2.60;;
2011;SDS011;1009;51.436;6.972;2023-08-06T03:25:30;3.90;;;2.67;;
2011;SDS011;1009;51.436;6.972;2023-08-06T03:27:57;2.93;;;2.20;;
2011;SDS011;1009;51.436;6.972;2023-08-06T03:30:24;4.10;;;2.70;;
2011;SDS011;1009;51.436;6.972;2023-08-06T03:32:50;3.00;;;2.20;;
2011;SDS011;1009;51.436;6.972;2023-08-06T03:35:17;4.83;;;2.33;;
2011;SDS011;1009;51.436;6.972;2023-08-06T03:37:45;4.17;;;2.60;;
2011;SDS011;1009;51.436;6.972;2023-08-06T03:40:13;2.63;;;2.10;;
2011;SDS011;1009;51.436;6.972;2023-08-06T03:42:40;2.90;;;2.43;;
2011;SDS011;1009;51.436;6.972;2023-08-06T03:45:07;2.90;;;2.60;;
2011;SDS011;1009;51.436;6.972;2023-08-06T03:47:34;3.60;;;2.53;;
2011;SDS011;1009;51.436;6.972;2023-08-06T03:50:01;3.20;;;2.57;;
2011;SDS011;1009;51.436;6.972;2023-08-06T03:52:28;5.50;;;2.90;;
2011;SDS011;1009;51.436;6.972;2023-08-06T03:54:56;2.40;;;1.97;;
2011;SDS011;1009;51.436;6.972;2023-08-06T03:57:23;5.23;;;2.50;;
2011;SDS011;1009;51.436;6.972;2023-08-06T03:59:50;2.27;;;2.07;;
2011;SDS011;1009;51.436;6.972;2023-08-06T04:02:16;3.23;;;2.40;;
2011;SDS011;1009;51.436;6.972;2023-08-06T04:04:43;4.37;;;2.43;;
2011;SDS011;1009;51.436;6.972;2023-08-06T04:07:10;4.37;;;3.97;;
2011;SDS011;1009;51.436;6.972;2023-08-06T04:09:52;3.33;;;2.03;;
2011;SDS011;1009;51.436;6.972;2023-08-06T04:12:21;2.87;;;2.20;;
2011;SDS011;1009;51.436;6.972;2023-08-06T04:14:48;4.13;;;2.60;;
2011;SDS011;1009;51.436;6.972;2023-08-06T04:17:15;4.00;;;2.50;;
2011;SDS011;1009;51.436;6.972;2023-08-06T04:19:45;2.30;;;1.87;;
2011;SDS011;1009;51.436;6.972;2023-08-06T04:22:12;3.03;;;2.27;;
2011;SDS011;1009;51.436;6.972;2023-08-06T04:24:39;4.10;;;2.27;;
2011;SDS011;1009;51.436;6.972;2023-08-06T04:27:06;2.77;;;2.03;;
2011;SDS011;1009;51.436;6.972;2023-08-06T04:29:37;3.30;;;2.50;;
2011;SDS011;1009;51.436;6.972;2023-08-06T04:32:05;2.40;;;1.83;;
2011;SDS011;1009;51.436;6.972;2023-08-06T04:34:33;2.80;;;1.87;;
2011;SDS011;1009;51.436;6.972;2023-08-06T04:37:01;8.00;;;2.37;;
2011;SDS011;1009;51.436;6.972;2023-08-06T04:39:28;4.67;;;1.97;;
2011;SDS011;1009;51.436;6.972;2023-08-06T04:41:55;3.83;;;2.30;;
2011;SDS011;1009;51.436;6.972;2023-08-06T04:44:22;5.80;;;2.30;;
2011;SDS011;1009;51.436;6.972;2023-08-06T04:46:51;4.27;;;2.63;;
2011;SDS011;1009;51.436;6.972;2023-08-06T04:49:19;2.70;;;1.60;;
2011;SDS011;1009;51.436;6.972;2023-08-06T04:51:46;3.97;;;2.43;;
2011;SDS011;1009;51.436;6.972;2023-08-06T04:54:13;4.20;;;2.00;;
2011;SDS011;1009;51.436;6.972;2023-08-06T04:56:39;2.60;;;1.77;;
2011;SDS011;1009;51.436;6.972;2023-08-06T04:59:06;2.23;;;1.97;;
2011;SDS011;1009;51.436;6.972;2023-08-06T05:01:33;3.00;;;1.97;;
2011;SDS011;1009;51.436;6.972;2023-08-06T05:04:01;6.23;;;2.40;;
2011;SDS011;1009;51.436;6.972;2023-08-06T05:06:28;2.37;;;1.87;;
2011;SDS011;1009;51.436;6.972;2023-08-06T05:08:55;2.63;;;2.30;;
2011;SDS011;1009;51.436;6.972;2023-08-06T05:11:21;3.30;;;2.23;;
2011;SDS011;1009;51.436;6.972;2023-08-06T05:13:49;8.27;;;2.50;;
2011;SDS011;1009;51.436;6.972;2023-08-06T05:16:15;3.03;;;2.07;;
2011;SDS011;1009;51.436;6.972;2023-08-06T05:18:42;3.20;;;1.70;;
2011;SDS011;1009;51.436;6.972;2023-08-06T05:21:10;2.70;;;2.30;;
2011;SDS011;1009;51.436;6.972;2023-08-06T05:23:37;2.87;;;2.00;;
2011;SDS011;1009;51.436;6.972;2023-08-06T05:26:04;4.47;;;2.40;;
2011;SDS011;1009;51.436;6.972;2023-08-06T05:28:31;3.40;;;2.73;;
2011;SDS011;1009;51.436;6.972;2023-08-06T05:30:58;2.60;;;1.87;;
2011;SDS011;1009;51.436;6.972;2023-08-06T05:33:25;2.43;;;1.90;;
2011;SDS011;1009;51.436;6.972;2023-08-06T05:35:51;2.60;;;2.07;;
2011;SDS011;1009;51.436;6.972;2023-08-06T05:38:19;5.20;;;1.90;;
2011;SDS011;1009;51.436;6.972;2023-08-06T05:40:46;2.70;;;1.50;;
2011;SDS011;1009;51.436;6.972;2023-08-06T05:43:14;5.20;;;2.20;;
2011;SDS011;1009;51.436;6.972;2023-08-06T05:45:43;2.03;;;1.53;;
2011;SDS011;1009;51.436;6.972;2023-08-06T05:48:11;4.47;;;1.40;;
2011;SDS011;1009;51.436;6.972;2023-08-06T05:50:38;1.80;;;1.50;;
2011;SDS011;1009;51.436;6.972;2023-08-06T05:53:04;3.63;;;2.27;;
2011;SDS011;1009;51.436;6.972;2023-08-06T05:55:32;2.80;;;1.77;;
2011;SDS011;1009;51.436;6.972;2023-08-06T05:58:00;4.57;;;2.50;;
2011;SDS011;1009;51.436;6.972;2023-08-06T06:00:27;2.00;;;1.80;;
2011;SDS011;1009;51.436;6.972;2023-08-06T06:02:54;2.50;;;1.90;;
2011;SDS011;1009;51.436;6.972;2023-08-06T06:05:21;2.50;;;1.80;;
2011;SDS011;1009;51.436;6.972;2023-08-06T06:07:47;3.30;;;1.60;;
2011;SDS011;1009;51.436;6.972;2023-08-06T06:10:14;2.43;;;1.97;;
2011;SDS011;1009;51.436;6.972;2023-08-06T06:12:42;2.37;;;1.60;;
2011;SDS011;1009;51.436;6.972;2023-08-06T06:15:09;3.07;;;2.43;;
2011;SDS011;1009;51.436;6.972;2023-08-06T06:17:36;6.87;;;2.27;;
2011;SDS011;1009;51.436;6.972;2023-08-06T06:20:03;5.53;;;1.90;;
2011;SDS011;1009;51.436;6.972;2023-08-06T06:22:31;7.23;;;2.00;;
2011;SDS011;1009;51.436;6.972;2023-08-06T06:24:58;3.77;;;2.07;;
2011;SDS011;1009;51.436;6.972;2023-08-06T06:27:25;3.10;;;1.87;;
2011;SDS011;1009;51.436;6.972;2023-08-06T06:29:53;3.90;;;2.17;;
2011;SDS011;1009;51.436;6.972;2023-08-06T06:32:20;4.43;;;2.10;;
2011;SDS011;1009;51.436;6.972;2023-08-06T06:34:47;4.97;;;1.83;;
2011;SDS011;1009;51.436;6.972;2023-08-06T06:37:14;2.23;;;2.00;;
2011;SDS011;1009;51.436;6.972;2023-08-06T06:39:41;2.00;;;1.60;;
2011;SDS011;1009;51.436;6.972;2023-08-06T06:42:09;3.70;;;2.30;;
2011;SDS011;1009;51.436;6.972;2023-08-06T06:44:35;3.10;;;2.00;;
2011;SDS011;1009;51.436;6.972;2023-08-06T06:47:04;2.17;;;1.97;;
2011;SDS011;1009;51.436;6.972;2023-08-06T06:49:30;3.23;;;1.60;;
2011;SDS011;1009;51.436;6.972;2023-08-06T06:51:57;3.93;;;2.23;;
2011;SDS011;1009;51.436;6.972;2023-08-06T06:54:24;3.60;;;2.10;;
2011;SDS011;1009;51.436;6.972;2023-08-06T06:56:51;4.00;;;2.00;;
2011;SDS011;1009;51.436;6.972;2023-08-06T06:59:18;3.37;;;3.07;;
2011;SDS011;1009;51.436;6.972;2023-08-06T07:01:45;3.63;;;2.43;;
2011;SDS011;1009;51.436;6.972;2023-08-06T07:04:13;4.03;;;2.70;;
2011;SDS011;1009;51.436;6.972;2023-08-06T07:06:40;3.27;;;1.80;;
2011;SDS011;1009;51.436;6.972;2023-08-06T07:09:07;4.10;;;2.07;;
2011;SDS011;1009;51.436;6.972;2023-08-06T07:11:33;5.03;;;2.10;;
2011;SDS011;1009;51.436;6.972;2023-08-06T07:14:00;4.20;;;2.60;;
2011;SDS011;1009;51.436;6.972;2023-08-06T07:16:27;2.40;;;1.83;;
2011;SDS011;1009;51.436;6.972;2023-08-06T07:18:54;2.63;;;1.77;;
2011;SDS011;1009;51.436;6.972;2023-08-06T07:21:22;2.77;;;1.70;;
2011;SDS011;1009;51.436;6.972;2023-08-06T07:23:49;6.20;;;2.00;;
2011;SDS011;1009;51.436;6.972;2023-08-06T07:26:16;2.40;;;1.80;;
2011;SDS011;1009;51.436;6.972;2023-08-06T07:28:43;2.10;;;1.70;;
2011;SDS011;1009;51.436;6.972;2023-08-06T07:31:09;3.43;;;2.03;;
2011;SDS011;1009;51.436;6.972;2023-08-06T07:33:36;1.97;;;1.53;;
2011;SDS011;1009;51.436;6.972;2023-08-06T07:36:10;2.37;;;1.90;;
2011;SDS011;1009;51.436;6.972;2023-08-06T07:38:40;1.90;;;1.47;;
2011;SDS011;1009;51.436;6.972;2023-08-06T07:41:07;2.13;;;1.60;;
2011;SDS011;1009;51.436;6.972;2023-08-06T07:43:34;2.23;;;1.70;;
2011;SDS011;1009;51.436;6.972;2023-08-06T07:46:01;2.77;;;2.03;;
2011;SDS011;1009;51.436;6.972;2023-08-06T07:48:28;2.47;;;1.50;;
2011;SDS011;1009;51.436;6.972;2023-08-06T07:50:55;1.70;;;1.57;;
2011;SDS011;1009;51.436;6.972;2023-08-06T07:53:23;2.50;;;1.50;;
2011;SDS011;1009;51.436;6.972;2023-08-06T07:55:53;2.43;;;1.30;;
2011;SDS011;1009;51.436;6.972;2023-08-06T07:58:20;2.30;;;1.30;;
2011;SDS011;1009;51.436;6.972;2023-08-06T08:00:47;2.80;;;1.37;;
2011;SDS011;1009;51.436;6.972;2023-08-06T08:03:14;1.70;;;1.50;;
2011;SDS011;1009;51.436;6.972;2023-08-06T08:05:43;3.57;;;1.40;;
2011;SDS011;1009;51.436;6.972;2023-08-06T08:08:10;2.20;;;1.60;;
2011;SDS011;1009;51.436;6.972;2023-08-06T08:10:37;1.87;;;1.10;;
2011;SDS011;1009;51.436;6.972;2023-08-06T08:13:05;2.60;;;1.73;;
2011;SDS011;1009;51.436;6.972;2023-08-06T08:15:34;2.90;;;1.80;;
2011;SDS011;1009;51.436;6.972;2023-08-06T08:18:01;2.87;;;1.80;;
2011;SDS011;1009;51.436;6.972;2023-08-06T08:20:28;1.97;;;1.50;;
2011;SDS011;1009;51.436;6.972;2023-08-06T08:22:57;4.73;;;2.07;;
2011;SDS011;1009;51.436;6.972;2023-08-06T08:25:25;3.87;;;1.87;;
2011;SDS011;1009;51.436;6.972;2023-08-06T08:27:52;1.67;;;1.50;;
2011;SDS011;1009;51.436;6.972;2023-08-06T08:30:20;2.07;;;1.70;;
2011;SDS011;1009;51.436;6.972;2023-08-06T08:32:47;2.40;;;2.00;;
2011;SDS011;1009;51.436;6.972;2023-08-06T08:35:14;3.10;;;2.10;;
2011;SDS011;1009;51.436;6.972;2023-08-06T08:37:41;4.60;;;2.17;;
2011;SDS011;1009;51.436;6.972;2023-08-06T08:40:09;2.00;;;1.60;;
2011;SDS011;1009;51.436;6.972;2023-08-06T08:42:36;3.37;;;1.60;;
2011;SDS011;1009;51.436;6.972;2023-08-06T08:45:04;2.53;;;1.43;;
2011;SDS011;1009;51.436;6.972;2023-08-06T08:47:34;1.50;;;1.40;;
2011;SDS011;1009;51.436;6.972;2023-08-06T08:50:01;2.20;;;1.43;;
2011;SDS011;1009;51.436;6.972;2023-08-06T08:52:30;4.00;;;1.80;;
2011;SDS011;1009;51.436;6.972;2023-08-06T08:54:59;2.67;;;1.37;;
2011;SDS011;1009;51.436;6.972;2023-08-06T08:57:28;3.10;;;1.50;;
2011;SDS011;1009;51.436;6.972;2023-08-06T08:59:54;1.27;;;1.10;;
2011;SDS011;1009;51.436;6.972;2023-08-06T09:02:21;3.57;;;1.83;;
2011;SDS011;1009;51.436;6.972;2023-08-06T09:04:52;1.93;;;1.47;;
2011;SDS011;1009;51.436;6.972;2023-08-06T09:07:22;2.57;;;1.70;;
2011;SDS011;1009;51.436;6.972;2023-08-06T09:09:50;4.30;;;1.70;;
2011;SDS011;1009;51.436;6.972;2023-08-06T09:12:19;1.90;;;1.33;;
2011;SDS011;1009;51.436;6.972;2023-08-06T09:14:46;3.03;;;1.70;;
2011;SDS011;1009;51.436;6.972;2023-08-06T09:17:13;1.70;;;1.60;;
2011;SDS011;1009;51.436;6.972;2023-08-06T09:19:44;4.60;;;1.77;;
2011;SDS011;1009;51.436;6.972;2023-08-06T09:22:14;2.67;;;1.60;;
2011;SDS011;1009;51.436;6.972;2023-08-06T09:24:42;1.90;;;1.67;;
2011;SDS011;1009;51.436;6.972;2023-08-06T09:27:13;2.00;;;1.70;;
2011;SDS011;1009;51.436;6.972;2023-08-06T09:29:41;5.60;;;1.70;;
2011;SDS011;1009;51.436;6.972;2023-08-06T09:32:10;2.40;;;1.73;;
2011;SDS011;1009;51.436;6.972;2023-08-06T09:34:38;2.40;;;1.80;;
2011;SDS011;1009;51.436;6.972;2023-08-06T09:37:07;2.47;;;2.00;;
2011;SDS011;1009;51.436;6.972;2023-08-06T09:39:37;3.87;;;2.20;;
2011;SDS011;1009;51.436;6.972;2023-08-06T09:42:05;3.43;;;2.17;;
2011;SDS011;1009;51.436;6.972;2023-08-06T09:44:32;2.83;;;2.03;;
2011;SDS011;1009;51.436;6.972;2023-08-06T09:47:00;2.17;;;1.97;;
2011;SDS011;1009;51.436;6.972;2023-08-06T09:49:28;4.20;;;2.10;;
2011;SDS011;1009;51.436;6.972;2023-08-06T09:52:08;4.27;;;2.57;;
2011;SDS011;1009;51.436;6.972;2023-08-06T09:54:39;3.57;;;2.90;;
2011;SDS011;1009;51.436;6.972;2023-08-06T09:57:06;4.40;;;4.03;;
2011;SDS011;1009;51.436;6.972;2023-08-06T09:59:33;6.17;;;4.40;;
2011;SDS011;1009;51.436;6.972;2023-08-06T10:02:01;6.77;;;4.70;;
2011;SDS011;1009;51.436;6.972;2023-08-06T10:04:31;5.23;;;4.33;;
2011;SDS011;1009;51.436;6.972;2023-08-06T10:06:58;5.70;;;4.47;;
2011;SDS011;1009;51.436;6.972;2023-08-06T10:09:26;6.80;;;4.60;;
2011;SDS011;1009;51.436;6.972;2023-08-06T10:11:54;8.07;;;4.97;;
2011;SDS011;1009;51.436;6.972;2023-08-06T10:14:24;6.23;;;4.70;;
2011;SDS011;1009;51.436;6.972;2023-08-06T10:16:55;7.17;;;5.27;;
2011;SDS011;1009;51.436;6.972;2023-08-06T10:19:23;5.63;;;5.00;;
2011;SDS011;1009;51.436;6.972;2023-08-06T10:22:10;5.13;;;4.63;;
2011;SDS011;1009;51.436;6.972;2023-08-06T10:24:51;6.00;;;5.30;;
2011;SDS011;1009;51.436;6.972;2023-08-06T10:27:31;5.57;;;4.57;;
2011;SDS011;1009;51.436;6.972;2023-08-06T10:32:48;6.50;;;5.10;;
2011;SDS011;1009;51.436;6.972;2023-08-06T10:35:34;3.40;;;3.10;;
2011;SDS011;1009;51.436;6.972;2023-08-06T10:38:05;3.70;;;3.10;;
2011;SDS011;1009;51.436;6.972;2023-08-06T10:40:34;3.40;;;2.70;;
2011;SDS011;1009;51.436;6.972;2023-08-06T10:43:03;4.40;;;3.37;;
2011;SDS011;1009;51.436;6.972;2023-08-06T10:45:34;4.80;;;3.87;;
2011;SDS011;1009;51.436;6.972;2023-08-06T10:48:01;7.20;;;4.80;;
2011;SDS011;1009;51.436;6.972;2023-08-06T10:50:28;4.60;;;4.10;;
2011;SDS011;1009;51.436;6.972;2023-08-06T10:52:57;7.10;;;4.90;;
2011;SDS011;1009;51.436;6.972;2023-08-06T10:55:29;8.50;;;4.23;;
2011;SDS011;1009;51.436;6.972;2023-08-06T10:57:56;7.80;;;4.70;;
2011;SDS011;1009;51.436;6.972;2023-08-06T11:00:25;4.43;;;4.03;;
2011;SDS011;1009;51.436;6.972;2023-08-06T11:02:52;4.50;;;3.90;;
2011;SDS011;1009;51.436;6.972;2023-08-06T11:05:20;7.20;;;4.90;;
2011;SDS011;1009;51.436;6.972;2023-08-06T11:07:47;5.50;;;4.60;;
2011;SDS011;1009;51.436;6.972;2023-08-06T11:10:14;5.60;;;4.13;;
2011;SDS011;1009;51.436;6.972;2023-08-06T11:12:41;6.23;;;5.50;;
2011;SDS011;1009;51.436;6.972;2023-08-06T11:15:08;5.63;;;5.13;;
2011;SDS011;1009;51.436;6.972;2023-08-06T11:17:39;5.60;;;5.10;;
2011;SDS011;1009;51.436;6.972;2023-08-06T11:20:07;5.17;;;4.67;;
2011;SDS011;1009;51.436;6.972;2023-08-06T11:22:35;6.97;;;5.80;;
2011;SDS011;1009;51.436;6.972;2023-08-06T11:25:02;3.37;;;3.07;;
2011;SDS011;1009;51.436;6.972;2023-08-06T11:27:29;1.73;;;1.43;;
2011;SDS011;1009;51.436;6.972;2023-08-06T11:29:56;1.67;;;1.30;;
2011;SDS011;1009;51.436;6.972;2023-08-06T11:32:23;4.63;;;1.13;;
2011;SDS011;1009;51.436;6.972;2023-08-06T11:34:52;1.30;;;1.20;;
2011;SDS011;1009;51.436;6.972;2023-08-06T11:37:20;1.00;;;0.80;;
2011;SDS011;1009;51.436;6.972;2023-08-06T11:39:49;1.70;;;1.40;;
2011;SDS011;1009;51.436;6.972;2023-08-06T11:42:16;2.47;;;1.13;;
2011;SDS011;1009;51.436;6.972;2023-08-06T11:44:43;1.50;;;1.13;;
2011;SDS011;1009;51.436;6.972;2023-08-06T11:47:12;1.30;;;1.10;;
2011;SDS011;1009;51.436;6.972;2023-08-06T11:49:41;2.20;;;1.50;;
2011;SDS011;1009;51.436;6.972;2023-08-06T11:52:13;2.60;;;1.30;;
2011;SDS011;1009;51.436;6.972;2023-08-06T11:54:42;1.80;;;1.30;;
2011;SDS011;1009;51.436;6.972;2023-08-06T11:57:10;2.53;;;1.73;;
2011;SDS011;1009;51.436;6.972;2023-08-06T11:59:37;1.80;;;1.53;;
2011;SDS011;1009;51.436;6.972;2023-08-06T12:02:05;5.03;;;2.33;;
2011;SDS011;1009;51.436;6.972;2023-08-06T12:07:29;4.70;;;2.40;;
2011;SDS011;1009;51.436;6.972;2023-08-06T12:09:57;2.40;;;1.60;;
2011;SDS011;1009;51.436;6.972;2023-08-06T12:12:24;3.93;;;2.30;;
2011;SDS011;1009;51.436;6.972;2023-08-06T12:14:52;2.80;;;1.80;;
2011;SDS011;1009;51.436;6.972;2023-08-06T12:17:18;1.57;;;1.40;;
2011;SDS011;1009;51.436;6.972;2023-08-06T12:19:45;4.30;;;1.70;;
2011;SDS011;1009;51.436;6.972;2023-08-06T12:22:13;1.80;;;1.43;;
2011;SDS011;1009;51.436;6.972;2023-08-06T12:24:42;2.23;;;1.27;;
2011;SDS011;1009;51.436;6.972;2023-08-06T12:27:09;2.50;;;1.00;;
2011;SDS011;1009;51.436;6.972;2023-08-06T12:29:36;1.43;;;0.80;;
2011;SDS011;1009;51.436;6.972;2023-08-06T12:32:06;1.40;;;0.90;;
2011;SDS011;1009;51.436;6.972;2023-08-06T12:34:33;1.40;;;1.30;;
2011;SDS011;1009;51.436;6.972;2023-08-06T12:37:00;1.37;;;1.00;;
2011;SDS011;1009;51.436;6.972;2023-08-06T12:39:28;1.17;;;1.07;;
2011;SDS011;1009;51.436;6.972;2023-08-06T12:41:57;1.60;;;1.17;;
2011;SDS011;1009;51.436;6.972;2023-08-06T12:44:24;1.00;;;0.90;;
2011;SDS011;1009;51.436;6.972;2023-08-06T12:46:52;1.80;;;1.53;;
2011;SDS011;1009;51.436;6.972;2023-08-06T12:49:19;3.83;;;1.63;;
2011;SDS011;1009;51.436;6.972;2023-08-06T12:51:47;1.87;;;1.70;;
2011;SDS011;1009;51.436;6.972;2023-08-06T12:54:14;1.93;;;1.50;;
2011;SDS011;1009;51.436;6.972;2023-08-06T12:56:40;2.13;;;1.60;;
2011;SDS011;1009;51.436;6.972;2023-08-06T12:59:09;3.13;;;2.40;;
2011;SDS011;1009;51.436;6.972;2023-08-06T13:01:37;3.07;;;2.03;;
2011;SDS011;1009;51.436;6.972;2023-08-06T13:04:04;5.57;;;3.20;;
2011;SDS011;1009;51.436;6.972;2023-08-06T13:06:31;2.80;;;2.33;;
2011;SDS011;1009;51.436;6.972;2023-08-06T13:09:01;2.63;;;2.40;;
2011;SDS011;1009;51.436;6.972;2023-08-06T13:11:29;4.40;;;3.00;;
2011;SDS011;1009;51.436;6.972;2023-08-06T13:13:56;3.53;;;3.00;;
2011;SDS011;1009;51.436;6.972;2023-08-06T13:16:26;3.90;;;2.70;;
2011;SDS011;1009;51.436;6.972;2023-08-06T13:18:54;2.47;;;2.00;;
2011;SDS011;1009;51.436;6.972;2023-08-06T13:21:20;2.30;;;1.57;;
2011;SDS011;1009;51.436;6.972;2023-08-06T13:23:47;2.30;;;1.90;;
2011;SDS011;1009;51.436;6.972;2023-08-06T13:26:14;2.40;;;1.80;;
2011;SDS011;1009;51.436;6.972;2023-08-06T13:28:41;3.40;;;2.30;;
2011;SDS011;1009;51.436;6.972;2023-08-06T13:31:09;2.90;;;1.90;;
2011;SDS011;1009;51.436;6.972;2023-08-06T13:33:37;3.00;;;2.00;;
2011;SDS011;1009;51.436;6.972;2023-08-06T13:36:04;4.20;;;2.10;;
2011;SDS011;1009;51.436;6.972;2023-08-06T13:38:31;4.20;;;2.20;;
2011;SDS011;1009;51.436;6.972;2023-08-06T13:40:58;3.83;;;2.70;;
2011;SDS011;1009;51.436;6.972;2023-08-06T13:43:25;2.83;;;2.63;;
2011;SDS011;1009;51.436;6.972;2023-08-06T13:45:52;3.10;;;2.73;;
2011;SDS011;1009;51.436;6.972;2023-08-06T13:48:19;3.17;;;2.60;;
2011;SDS011;1009;51.436;6.972;2023-08-06T13:50:48;4.03;;;3.17;;
2011;SDS011;1009;51.436;6.972;2023-08-06T13:53:15;4.80;;;3.53;;
2011;SDS011;1009;51.436;6.972;2023-08-06T13:55:42;5.80;;;3.17;;
2011;SDS011;1009;51.436;6.972;2023-08-06T13:58:09;3.83;;;3.17;;
2011;SDS011;1009;51.436;6.972;2023-08-06T14:00:36;3.87;;;3.47;;
2011;SDS011;1009;51.436;6.972;2023-08-06T14:03:03;5.43;;;3.30;;
2011;SDS011;1009;51.436;6.972;2023-08-06T14:05:30;4.00;;;2.97;;
2011;SDS011;1009;51.436;6.972;2023-08-06T14:07:58;6.83;;;3.27;;
2011;SDS011;1009;51.436;6.972;2023-08-06T14:10:25;5.40;;;2.70;;
2011;SDS011;1009;51.436;6.972;2023-08-06T14:12:52;5.07;;;2.83;;
2011;SDS011;1009;51.436;6.972;2023-08-06T14:15:19;6.10;;;3.50;;
2011;SDS011;1009;51.436;6.972;2023-08-06T14:17:46;5.07;;;3.63;;
2011;SDS011;1009;51.436;6.972;2023-08-06T14:20:12;5.23;;;2.90;;
2011;SDS011;1009;51.436;6.972;2023-08-06T14:22:39;4.40;;;3.27;;
2011;SDS011;1009;51.436;6.972;2023-08-06T14:25:07;5.63;;;3.90;;
2011;SDS011;1009;51.436;6.972;2023-08-06T14:27:34;6.03;;;4.20;;
2011;SDS011;1009;51.436;6.972;2023-08-06T14:30:04;4.10;;;3.60;;
2011;SDS011;1009;51.436;6.972;2023-08-06T14:32:31;4.70;;;3.27;;
2011;SDS011;1009;51.436;6.972;2023-08-06T14:34:58;4.03;;;3.00;;
2011;SDS011;1009;51.436;6.972;2023-08-06T14:37:25;3.37;;;2.40;;
2011;SDS011;1009;51.436;6.972;2023-08-06T14:39:52;3.80;;;2.60;;
2011;SDS011;1009;51.436;6.972;2023-08-06T14:42:20;3.97;;;3.10;;
2011;SDS011;1009;51.436;6.972;2023-08-06T14:44:47;5.33;;;3.47;;
2011;SDS011;1009;51.436;6.972;2023-08-06T14:47:15;5.47;;;3.67;;
2011;SDS011;1009;51.436;6.972;2023-08-06T14:49:41;3.90;;;2.73;;
2011;SDS011;1009;51.436;6.972;2023-08-06T14:52:09;5.50;;;3.33;;
2011;SDS011;1009;51.436;6.972;2023-08-06T14:54:36;3.03;;;2.67;;
2011;SDS011;1009;51.436;6.972;2023-08-06T14:57:03;5.00;;;2.40;;
2011;SDS011;1009;51.436;6.972;2023-08-06T14:59:31;3.60;;;2.40;;
2011;SDS011;1009;51.436;6.972;2023-08-06T15:01:59;7.67;;;3.40;;
2011;SDS011;1009;51.436;6.972;2023-08-06T15:04:26;3.10;;;2.60;;
2011;SDS011;1009;51.436;6.972;2023-08-06T15:06:53;2.73;;;2.23;;
2011;SDS011;1009;51.436;6.972;2023-08-06T15:09:20;4.93;;;2.87;;
2011;SDS011;1009;51.436;6.972;2023-08-06T15:11:47;4.40;;;2.53;;
2011;SDS011;1009;51.436;6.972;2023-08-06T15:14:14;2.60;;;2.20;;
2011;SDS011;1009;51.436;6.972;2023-08-06T15:16:46;2.97;;;2.27;;
2011;SDS011;1009;51.436;6.972;2023-08-06T15:19:13;4.73;;;2.97;;
2011;SDS011;1009;51.436;6.972;2023-08-06T15:21:42;3.30;;;2.03;;
2011;SDS011;1009;51.436;6.972;2023-08-06T15:24:09;3.43;;;2.30;;